Hav Tind — OZ2071 — position and weather

sailwx.info

Track history (hours):
 
Tides and Currents Weather Stations Pressure Air Temp Water Temp Dewpoint Dewpoint Depression Visibility Wind Speed Wind Dir Waves Ship Positions

Hav Tind

Last reported at 2014-Oct-31 12:33 UTC. Time now 2014-Oct-31 13:34 UTC.
Position N 62°14' W 006°48'.

Length 60 m; draft 4 m.

Type: Cargo ship. MMSI: 231565000.

Date/timePositionNaut miles runAvg speedWind from/ knotsBaromVisibWave heightAir tempDewpointWater temp
2014-Oct-31 12:33N 62°14' W 006°48'0 0.0
2014-Oct-31 11:33N 62°14' W 006°48'0 0.0
2014-Oct-31 10:33N 62°14' W 006°48'0 0.0
2014-Oct-31 09:30N 62°14' W 006°48'0 0.0
2014-Oct-31 08:33N 62°14' W 006°48'0 0.0
2014-Oct-31 07:33N 62°14' W 006°48'0 0.0
2014-Oct-31 06:33N 62°14' W 006°48'0 0.0
2014-Oct-31 05:33N 62°14' W 006°48'0 0.0
2014-Oct-31 04:33N 62°14' W 006°48'0 0.0
2014-Oct-31 03:33N 62°14' W 006°48'0 0.0
2014-Oct-31 02:33N 62°14' W 006°48'0 0.0
2014-Oct-31 01:33N 62°14' W 006°48'0 0.0
2014-Oct-31 00:33N 62°14' W 006°48'0 0.0
2014-Oct-30 23:33N 62°14' W 006°48'0 0.0
2014-Oct-30 22:33N 62°14' W 006°48'0 0.0
2014-Oct-30 21:33N 62°14' W 006°48'0 0.0
2014-Oct-30 20:33N 62°14' W 006°48'0 0.0
2014-Oct-30 19:33N 62°14' W 006°48'0 0.0
2014-Oct-30 18:33N 62°14' W 006°48'0 0.0
2014-Oct-30 17:33N 62°14' W 006°48'0 0.0
2014-Oct-30 16:33N 62°14' W 006°48'1 0.6
2014-Oct-30 15:33N 62°14' W 006°48'0 0.2
2014-Oct-30 14:31N 62°13' W 006°48'1 0.8
2014-Oct-30 13:31N 62°14' W 006°48'6 6.1
2014-Oct-30 12:33N 62°12' W 006°37'5 1.0
2014-Oct-30 07:28N 62°11' W 006°26'6 6.2
2014-Oct-30 06:32N 62°12' W 006°38'5 4.9
2014-Oct-30 05:32N 62°14' W 006°48'0 0.0
2014-Oct-30 04:32N 62°14' W 006°48'0 0.0
2014-Oct-30 03:32N 62°14' W 006°48'0 0.0
2014-Oct-30 02:29N 62°14' W 006°48'0 0.0
2014-Oct-30 01:32N 62°14' W 006°48'0 0.0
2014-Oct-30 00:32N 62°14' W 006°48'0 0.0
2014-Oct-29 23:32N 62°14' W 006°48'0 0.0
2014-Oct-29 22:32N 62°14' W 006°48'0 0.0
2014-Oct-29 21:32N 62°14' W 006°48'0 0.0
2014-Oct-29 20:32N 62°14' W 006°48'0 0.0
2014-Oct-29 19:32N 62°14' W 006°48'0 0.0
2014-Oct-29 18:32N 62°14' W 006°48'0 0.0
2014-Oct-29 17:32N 62°14' W 006°48'0 0.0
2014-Oct-29 16:32N 62°14' W 006°48'4 4.2
2014-Oct-29 15:33N 62°12' W 006°40'2 2.3
2014-Oct-29 14:33N 62°10' W 006°43'0 0.0
2014-Oct-29 13:33N 62°10' W 006°43'2 2.2
2014-Oct-29 12:33N 62°09' W 006°39'6 6.5
2014-Oct-29 11:33N 62°03' W 006°42'2 2.4
2014-Oct-29 10:33N 62°03' W 006°48'4 3.9
2014-Oct-29 09:32N 61°59' W 006°45'5 4.7
2014-Oct-29 08:33N 62°03' W 006°41'7 7.1
2014-Oct-29 07:33N 62°10' W 006°38'6 5.9
2014-Oct-29 06:33N 62°14' W 006°47'0 0.5
2014-Oct-29 05:33N 62°14' W 006°48'0 0.0
2014-Oct-29 04:33N 62°14' W 006°48'0 0.0
2014-Oct-29 03:33N 62°14' W 006°48'0 0.0
2014-Oct-29 02:33N 62°14' W 006°48'0 0.0
2014-Oct-29 01:30N 62°14' W 006°48'0 0.0
2014-Oct-29 00:33N 62°14' W 006°48'0 0.0
2014-Oct-28 23:33N 62°14' W 006°48'0 0.0
2014-Oct-28 22:33N 62°14' W 006°48'0 0.0
2014-Oct-28 21:33N 62°14' W 006°48'0 0.0
2014-Oct-28 20:33N 62°14' W 006°48'0 0.0
2014-Oct-28 19:33N 62°14' W 006°48'0 0.0
2014-Oct-28 18:33N 62°14' W 006°48'0 0.0
2014-Oct-28 17:30N 62°14' W 006°48'0 0.0
2014-Oct-28 16:33N 62°14' W 006°48'0 0.0
2014-Oct-28 15:33N 62°14' W 006°48'1 0.9
2014-Oct-28 14:33N 62°14' W 006°46'7 2.2
2014-Oct-28 11:23N 62°21' W 006°52'4 1.3
2014-Oct-28 08:21N 62°22' W 006°43'910.7
2014-Oct-28 07:34N 62°13' W 006°39'4 3.9
2014-Oct-28 06:28N 62°14' W 006°48'0 0.0
2014-Oct-28 05:31N 62°14' W 006°48'0 0.0
2014-Oct-28 04:31N 62°14' W 006°48'0 0.0
2014-Oct-28 03:31N 62°14' W 006°48'0 0.0
2014-Oct-28 02:28N 62°14' W 006°48'0 0.0
2014-Oct-28 01:31N 62°14' W 006°48'0 0.0
2014-Oct-28 00:31N 62°14' W 006°48'0 0.0
2014-Oct-27 23:31N 62°14' W 006°48'0 0.0
2014-Oct-27 22:31N 62°14' W 006°48'0 0.0
2014-Oct-27 21:31N 62°14' W 006°48'0 0.0
2014-Oct-27 20:31N 62°14' W 006°48'0 0.0
2014-Oct-27 19:31N 62°14' W 006°48'0 0.0
2014-Oct-27 18:31N 62°14' W 006°48'0 0.0
2014-Oct-27 17:31N 62°14' W 006°48'0 0.0
2014-Oct-27 16:34N 62°14' W 006°48'0 0.0
2014-Oct-27 15:31N 62°14' W 006°48'0 0.0
2014-Oct-27 14:31N 62°14' W 006°48'0 0.0
2014-Oct-27 13:22N 62°14' W 006°48'0 0.0
2014-Oct-27 12:28N 62°14' W 006°48'0 0.0
2014-Oct-27 11:31N 62°14' W 006°48'0 0.0
2014-Oct-27 10:31N 62°14' W 006°48'0 0.0
2014-Oct-27 09:31N 62°14' W 006°48'0 0.0
2014-Oct-27 08:31N 62°14' W 006°48'0 0.0
2014-Oct-27 07:31N 62°14' W 006°48'0 0.0
2014-Oct-27 06:31N 62°14' W 006°48'0 0.0
2014-Oct-27 05:31N 62°14' W 006°48'0 0.0
2014-Oct-27 04:31N 62°14' W 006°48'0 0.0
2014-Oct-27 03:31N 62°14' W 006°48'0 0.0
2014-Oct-27 02:31N 62°14' W 006°48'0 0.0
2014-Oct-27 01:28N 62°14' W 006°48'0 0.0
2014-Oct-27 00:31N 62°14' W 006°48'0 0.0
2014-Oct-26 23:31N 62°14' W 006°48'0 0.0
2014-Oct-26 22:31N 62°14' W 006°48'0 0.0
2014-Oct-26 21:28N 62°14' W 006°48'0 0.0
2014-Oct-26 20:31N 62°14' W 006°48'0 0.0
2014-Oct-26 19:31N 62°14' W 006°48'0 0.0
2014-Oct-26 18:33N 62°14' W 006°48'0 0.0
2014-Oct-26 17:31N 62°14' W 006°48'0 0.0
2014-Oct-26 16:31N 62°14' W 006°48'0 0.0
2014-Oct-26 15:31N 62°14' W 006°48'0 0.0
2014-Oct-26 14:31N 62°14' W 006°48'0 0.0
2014-Oct-26 13:31N 62°14' W 006°48'0 0.0
2014-Oct-26 12:31N 62°14' W 006°48'0 0.0
2014-Oct-26 11:31N 62°14' W 006°48'0 0.0
2014-Oct-26 10:31N 62°14' W 006°48'0 0.0
2014-Oct-26 09:31N 62°14' W 006°48'0 0.0
2014-Oct-26 08:31N 62°14' W 006°48'0 0.0
2014-Oct-26 07:31N 62°14' W 006°48'0 0.0
2014-Oct-26 06:31N 62°14' W 006°48'0 0.0
2014-Oct-26 05:31N 62°14' W 006°48'0 0.0
2014-Oct-26 04:28N 62°14' W 006°48'0 0.0
2014-Oct-26 03:31N 62°14' W 006°48'0 0.0
2014-Oct-26 02:31N 62°14' W 006°48'0 0.0
2014-Oct-26 01:28N 62°14' W 006°48'0 0.0
2014-Oct-26 00:31N 62°14' W 006°48'0 0.0
2014-Oct-25 23:33N 62°14' W 006°48'0 0.0
2014-Oct-25 22:31N 62°14' W 006°48'0 0.0
2014-Oct-25 21:28N 62°14' W 006°48'0 0.0
2014-Oct-25 20:31N 62°14' W 006°48'0 0.0
2014-Oct-25 19:31N 62°14' W 006°48'0 0.0
2014-Oct-25 18:31N 62°14' W 006°48'0 0.0
2014-Oct-25 17:30N 62°14' W 006°48'0 0.0
2014-Oct-25 16:33N 62°14' W 006°48'0 0.0
2014-Oct-25 15:28N 62°14' W 006°48'0 0.0
2014-Oct-25 14:31N 62°14' W 006°48'0 0.0
2014-Oct-25 13:31N 62°14' W 006°48'0 0.0
2014-Oct-25 12:28N 62°14' W 006°48'0 0.0
2014-Oct-25 11:28N 62°14' W 006°48'0 0.0
2014-Oct-25 10:31N 62°14' W 006°48'0 0.0
2014-Oct-25 09:22N 62°14' W 006°48'0 0.0
2014-Oct-25 08:33N 62°14' W 006°48'0 0.0
2014-Oct-25 07:19N 62°14' W 006°48'0 0.0
2014-Oct-25 06:31N 62°14' W 006°48'0 0.0
2014-Oct-25 05:31N 62°14' W 006°48'0 0.0
2014-Oct-25 04:28N 62°14' W 006°48'0 0.0
2014-Oct-25 03:31N 62°14' W 006°48'0 0.0
2014-Oct-25 02:25N 62°14' W 006°48'0 0.0
2014-Oct-25 01:28N 62°14' W 006°48'0 0.0
2014-Oct-25 00:31N 62°14' W 006°48'0 0.0
2014-Oct-24 23:28N 62°14' W 006°48'0 0.0
2014-Oct-24 22:33N 62°14' W 006°48'0 0.0
2014-Oct-24 21:28N 62°14' W 006°48'0 0.0
2014-Oct-24 20:31N 62°14' W 006°48'0 0.0
2014-Oct-24 19:28N 62°14' W 006°48'0 0.0
2014-Oct-24 18:27N 62°14' W 006°48'7 7.5
2014-Oct-24 17:32N 62°11' W 006°35'4 0.8
2014-Oct-24 12:12N 62°11' W 006°27'3 1.9
2014-Oct-24 10:32N 62°10' W 006°33'8 7.5
2014-Oct-24 09:30N 62°13' W 006°48'0 0.1
2014-Oct-24 08:30N 62°14' W 006°48'1 0.7
2014-Oct-24 07:31N 62°14' W 006°48'0 0.0
2014-Oct-24 06:22N 62°14' W 006°48'0 0.0
2014-Oct-24 05:31N 62°14' W 006°48'0 0.0
2014-Oct-24 04:31N 62°14' W 006°48'0 0.0
2014-Oct-24 03:31N 62°14' W 006°48'0 0.0
2014-Oct-24 02:31N 62°14' W 006°48'0 0.0
2014-Oct-24 01:31N 62°14' W 006°48'0 0.0
2014-Oct-24 00:28N 62°14' W 006°48'0 0.0
2014-Oct-23 23:22N 62°14' W 006°48'0 0.0
2014-Oct-23 22:31N 62°14' W 006°48'0 0.0
2014-Oct-23 21:31N 62°14' W 006°48'0 0.0
2014-Oct-23 20:28N 62°14' W 006°48'0 0.0
2014-Oct-23 19:31N 62°14' W 006°48'0 0.0
2014-Oct-23 18:31N 62°14' W 006°48'5 4.9
2014-Oct-23 17:33N 62°12' W 006°39'3 2.4
2014-Oct-23 16:28N 62°10' W 006°43'0 0.0
2014-Oct-23 15:25N 62°10' W 006°43'3 2.7
2014-Oct-23 14:28N 62°12' W 006°39'5 5.0
2014-Oct-23 13:29N 62°14' W 006°48'0 0.1
2014-Oct-23 12:33N 62°14' W 006°48'2 0.3
2014-Oct-23 07:22N 62°15' W 006°46'2 1.9
2014-Oct-23 06:32N 62°14' W 006°48'0 0.0
2014-Oct-23 05:32N 62°14' W 006°48'0 0.0
2014-Oct-23 04:32N 62°14' W 006°48'0 0.0
2014-Oct-23 03:29N 62°14' W 006°48'0 0.0
2014-Oct-23 02:26N 62°14' W 006°48'0 0.0
2014-Oct-23 01:29N 62°14' W 006°48'0 0.0
2014-Oct-23 00:29N 62°14' W 006°48'0 0.0
2014-Oct-22 23:29N 62°14' W 006°48'0 0.0
2014-Oct-22 22:32N 62°14' W 006°48'0 0.0
2014-Oct-22 21:32N 62°14' W 006°48'0 0.0
2014-Oct-22 20:32N 62°14' W 006°48'0 0.0
2014-Oct-22 19:23N 62°14' W 006°48'0 0.0
2014-Oct-22 18:32N 62°14' W 006°48'0 0.0
2014-Oct-22 17:29N 62°14' W 006°48'1 1.3
2014-Oct-22 16:33N 62°14' W 006°46'7 7.0
2014-Oct-22 15:33N 62°08' W 006°38'2 1.6
2014-Oct-22 14:34N 62°08' W 006°42'7 6.8
2014-Oct-22 13:33N 62°01' W 006°42'3 2.7
2014-Oct-22 12:33N 61°59' W 006°45'4 4.4
2014-Oct-22 11:33N 62°03' W 006°41'8 7.6
2014-Oct-22 10:33N 62°10' W 006°36'7 5.7
2014-Oct-22 09:19N 62°14' W 006°48'0 0.0
2014-Oct-22 08:31N 62°14' W 006°48'0 0.0
2014-Oct-22 07:28N 62°14' W 006°48'0 0.0
2014-Oct-22 06:28N 62°14' W 006°48'0 0.0
2014-Oct-22 05:22N 62°14' W 006°48'0 0.0
2014-Oct-22 04:28N 62°14' W 006°48'0 0.0
2014-Oct-22 03:28N 62°14' W 006°48'0 0.0
2014-Oct-22 02:28N 62°14' W 006°48'0 0.0
2014-Oct-22 01:31N 62°14' W 006°48'0 0.0
2014-Oct-22 00:28N 62°14' W 006°48'0 0.0
2014-Oct-21 23:19N 62°14' W 006°48'0 0.0
2014-Oct-21 22:22N 62°14' W 006°48'0 0.0
2014-Oct-21 21:31N 62°14' W 006°48'0 0.0
2014-Oct-21 20:31N 62°14' W 006°48'0 0.0
2014-Oct-21 19:28N 62°14' W 006°48'0 0.0
2014-Oct-21 18:13N 62°14' W 006°48'0 0.0
2014-Oct-21 17:28N 62°14' W 006°48'0 0.0
2014-Oct-21 16:31N 62°14' W 006°48'0 0.0
2014-Oct-21 15:31N 62°14' W 006°48'0 0.0
2014-Oct-21 14:31N 62°14' W 006°48'0 0.0
2014-Oct-21 13:25N 62°14' W 006°48'  
Track history (hours):
 
Tides and Currents Weather Stations Pressure Air Temp Water Temp Dewpoint Dewpoint Depression Visibility Wind Speed Wind Dir Waves Ship Positions

Hav Tind

Last reported at 2014-Oct-31 12:33 UTC. Time now 2014-Oct-31 13:34 UTC.
Position N 62°14' W 006°48'.

Length 60 m; draft 4 m.

Type: Cargo ship. MMSI: 231565000.

Date/timePositionNaut miles runAvg speedWind from/ knotsBaromVisibWave heightAir tempDewpointWater temp
2014-Oct-31 12:33N 62°14' W 006°48'0 0.0
2014-Oct-31 11:33N 62°14' W 006°48'0 0.0
2014-Oct-31 10:33N 62°14' W 006°48'0 0.0
2014-Oct-31 09:30N 62°14' W 006°48'0 0.0
2014-Oct-31 08:33N 62°14' W 006°48'0 0.0
2014-Oct-31 07:33N 62°14' W 006°48'0 0.0
2014-Oct-31 06:33N 62°14' W 006°48'0 0.0
2014-Oct-31 05:33N 62°14' W 006°48'0 0.0
2014-Oct-31 04:33N 62°14' W 006°48'0 0.0
2014-Oct-31 03:33N 62°14' W 006°48'0 0.0
2014-Oct-31 02:33N 62°14' W 006°48'0 0.0
2014-Oct-31 01:33N 62°14' W 006°48'0 0.0
2014-Oct-31 00:33N 62°14' W 006°48'0 0.0
2014-Oct-30 23:33N 62°14' W 006°48'0 0.0
2014-Oct-30 22:33N 62°14' W 006°48'0 0.0
2014-Oct-30 21:33N 62°14' W 006°48'0 0.0
2014-Oct-30 20:33N 62°14' W 006°48'0 0.0
2014-Oct-30 19:33N 62°14' W 006°48'0 0.0
2014-Oct-30 18:33N 62°14' W 006°48'0 0.0
2014-Oct-30 17:33N 62°14' W 006°48'0 0.0
2014-Oct-30 16:33N 62°14' W 006°48'1 0.6
2014-Oct-30 15:33N 62°14' W 006°48'0 0.2
2014-Oct-30 14:31N 62°13' W 006°48'1 0.8
2014-Oct-30 13:31N 62°14' W 006°48'6 6.1
2014-Oct-30 12:33N 62°12' W 006°37'5 1.0
2014-Oct-30 07:28N 62°11' W 006°26'6 6.2
2014-Oct-30 06:32N 62°12' W 006°38'5 4.9
2014-Oct-30 05:32N 62°14' W 006°48'0 0.0
2014-Oct-30 04:32N 62°14' W 006°48'0 0.0
2014-Oct-30 03:32N 62°14' W 006°48'0 0.0
2014-Oct-30 02:29N 62°14' W 006°48'0 0.0
2014-Oct-30 01:32N 62°14' W 006°48'0 0.0
2014-Oct-30 00:32N 62°14' W 006°48'0 0.0
2014-Oct-29 23:32N 62°14' W 006°48'0 0.0
2014-Oct-29 22:32N 62°14' W 006°48'0 0.0
2014-Oct-29 21:32N 62°14' W 006°48'0 0.0
2014-Oct-29 20:32N 62°14' W 006°48'0 0.0
2014-Oct-29 19:32N 62°14' W 006°48'0 0.0
2014-Oct-29 18:32N 62°14' W 006°48'0 0.0
2014-Oct-29 17:32N 62°14' W 006°48'0 0.0
2014-Oct-29 16:32N 62°14' W 006°48'4 4.2
2014-Oct-29 15:33N 62°12' W 006°40'2 2.3
2014-Oct-29 14:33N 62°10' W 006°43'0 0.0
2014-Oct-29 13:33N 62°10' W 006°43'2 2.2
2014-Oct-29 12:33N 62°09' W 006°39'6 6.5
2014-Oct-29 11:33N 62°03' W 006°42'2 2.4
2014-Oct-29 10:33N 62°03' W 006°48'4 3.9
2014-Oct-29 09:32N 61°59' W 006°45'5 4.7
2014-Oct-29 08:33N 62°03' W 006°41'7 7.1
2014-Oct-29 07:33N 62°10' W 006°38'6 5.9
2014-Oct-29 06:33N 62°14' W 006°47'0 0.5
2014-Oct-29 05:33N 62°14' W 006°48'0 0.0
2014-Oct-29 04:33N 62°14' W 006°48'0 0.0
2014-Oct-29 03:33N 62°14' W 006°48'0 0.0
2014-Oct-29 02:33N 62°14' W 006°48'0 0.0
2014-Oct-29 01:30N 62°14' W 006°48'0 0.0
2014-Oct-29 00:33N 62°14' W 006°48'0 0.0
2014-Oct-28 23:33N 62°14' W 006°48'0 0.0
2014-Oct-28 22:33N 62°14' W 006°48'0 0.0
2014-Oct-28 21:33N 62°14' W 006°48'0 0.0
2014-Oct-28 20:33N 62°14' W 006°48'0 0.0
2014-Oct-28 19:33N 62°14' W 006°48'0 0.0
2014-Oct-28 18:33N 62°14' W 006°48'0 0.0
2014-Oct-28 17:30N 62°14' W 006°48'0 0.0
2014-Oct-28 16:33N 62°14' W 006°48'0 0.0
2014-Oct-28 15:33N 62°14' W 006°48'1 0.9
2014-Oct-28 14:33N 62°14' W 006°46'7 2.2
2014-Oct-28 11:23N 62°21' W 006°52'4 1.3
2014-Oct-28 08:21N 62°22' W 006°43'910.7
2014-Oct-28 07:34N 62°13' W 006°39'4 3.9
2014-Oct-28 06:28N 62°14' W 006°48'0 0.0
2014-Oct-28 05:31N 62°14' W 006°48'0 0.0
2014-Oct-28 04:31N 62°14' W 006°48'0 0.0
2014-Oct-28 03:31N 62°14' W 006°48'0 0.0
2014-Oct-28 02:28N 62°14' W 006°48'0 0.0
2014-Oct-28 01:31N 62°14' W 006°48'0 0.0
2014-Oct-28 00:31N 62°14' W 006°48'0 0.0
2014-Oct-27 23:31N 62°14' W 006°48'0 0.0
2014-Oct-27 22:31N 62°14' W 006°48'0 0.0
2014-Oct-27 21:31N 62°14' W 006°48'0 0.0
2014-Oct-27 20:31N 62°14' W 006°48'0 0.0
2014-Oct-27 19:31N 62°14' W 006°48'0 0.0
2014-Oct-27 18:31N 62°14' W 006°48'0 0.0
2014-Oct-27 17:31N 62°14' W 006°48'0 0.0
2014-Oct-27 16:34N 62°14' W 006°48'0 0.0
2014-Oct-27 15:31N 62°14' W 006°48'0 0.0
2014-Oct-27 14:31N 62°14' W 006°48'0 0.0
2014-Oct-27 13:22N 62°14' W 006°48'0 0.0
2014-Oct-27 12:28N 62°14' W 006°48'0 0.0
2014-Oct-27 11:31N 62°14' W 006°48'0 0.0
2014-Oct-27 10:31N 62°14' W 006°48'0 0.0
2014-Oct-27 09:31N 62°14' W 006°48'0 0.0
2014-Oct-27 08:31N 62°14' W 006°48'0 0.0
2014-Oct-27 07:31N 62°14' W 006°48'0 0.0
2014-Oct-27 06:31N 62°14' W 006°48'0 0.0
2014-Oct-27 05:31N 62°14' W 006°48'0 0.0
2014-Oct-27 04:31N 62°14' W 006°48'0 0.0
2014-Oct-27 03:31N 62°14' W 006°48'0 0.0
2014-Oct-27 02:31N 62°14' W 006°48'0 0.0
2014-Oct-27 01:28N 62°14' W 006°48'0 0.0
2014-Oct-27 00:31N 62°14' W 006°48'0 0.0
2014-Oct-26 23:31N 62°14' W 006°48'0 0.0
2014-Oct-26 22:31N 62°14' W 006°48'0 0.0
2014-Oct-26 21:28N 62°14' W 006°48'0 0.0
2014-Oct-26 20:31N 62°14' W 006°48'0 0.0
2014-Oct-26 19:31N 62°14' W 006°48'0 0.0
2014-Oct-26 18:33N 62°14' W 006°48'0 0.0
2014-Oct-26 17:31N 62°14' W 006°48'0 0.0
2014-Oct-26 16:31N 62°14' W 006°48'0 0.0
2014-Oct-26 15:31N 62°14' W 006°48'0 0.0
2014-Oct-26 14:31N 62°14' W 006°48'0 0.0
2014-Oct-26 13:31N 62°14' W 006°48'0 0.0
2014-Oct-26 12:31N 62°14' W 006°48'0 0.0
2014-Oct-26 11:31N 62°14' W 006°48'0 0.0
2014-Oct-26 10:31N 62°14' W 006°48'0 0.0
2014-Oct-26 09:31N 62°14' W 006°48'0 0.0
2014-Oct-26 08:31N 62°14' W 006°48'0 0.0
2014-Oct-26 07:31N 62°14' W 006°48'0 0.0
2014-Oct-26 06:31N 62°14' W 006°48'0 0.0
2014-Oct-26 05:31N 62°14' W 006°48'0 0.0
2014-Oct-26 04:28N 62°14' W 006°48'0 0.0
2014-Oct-26 03:31N 62°14' W 006°48'0 0.0
2014-Oct-26 02:31N 62°14' W 006°48'0 0.0
2014-Oct-26 01:28N 62°14' W 006°48'0 0.0
2014-Oct-26 00:31N 62°14' W 006°48'0 0.0
2014-Oct-25 23:33N 62°14' W 006°48'0 0.0
2014-Oct-25 22:31N 62°14' W 006°48'0 0.0
2014-Oct-25 21:28N 62°14' W 006°48'0 0.0
2014-Oct-25 20:31N 62°14' W 006°48'0 0.0
2014-Oct-25 19:31N 62°14' W 006°48'0 0.0
2014-Oct-25 18:31N 62°14' W 006°48'0 0.0
2014-Oct-25 17:30N 62°14' W 006°48'0 0.0
2014-Oct-25 16:33N 62°14' W 006°48'0 0.0
2014-Oct-25 15:28N 62°14' W 006°48'0 0.0
2014-Oct-25 14:31N 62°14' W 006°48'0 0.0
2014-Oct-25 13:31N 62°14' W 006°48'0 0.0
2014-Oct-25 12:28N 62°14' W 006°48'0 0.0
2014-Oct-25 11:28N 62°14' W 006°48'0 0.0
2014-Oct-25 10:31N 62°14' W 006°48'0 0.0
2014-Oct-25 09:22N 62°14' W 006°48'0 0.0
2014-Oct-25 08:33N 62°14' W 006°48'0 0.0
2014-Oct-25 07:19N 62°14' W 006°48'0 0.0
2014-Oct-25 06:31N 62°14' W 006°48'0 0.0
2014-Oct-25 05:31N 62°14' W 006°48'0 0.0
2014-Oct-25 04:28N 62°14' W 006°48'0 0.0
2014-Oct-25 03:31N 62°14' W 006°48'0 0.0
2014-Oct-25 02:25N 62°14' W 006°48'0 0.0
2014-Oct-25 01:28N 62°14' W 006°48'0 0.0
2014-Oct-25 00:31N 62°14' W 006°48'0 0.0
2014-Oct-24 23:28N 62°14' W 006°48'0 0.0
2014-Oct-24 22:33N 62°14' W 006°48'0 0.0
2014-Oct-24 21:28N 62°14' W 006°48'0 0.0
2014-Oct-24 20:31N 62°14' W 006°48'0 0.0
2014-Oct-24 19:28N 62°14' W 006°48'0 0.0
2014-Oct-24 18:27N 62°14' W 006°48'7 7.5
2014-Oct-24 17:32N 62°11' W 006°35'4 0.8
2014-Oct-24 12:12N 62°11' W 006°27'3 1.9
2014-Oct-24 10:32N 62°10' W 006°33'8 7.5
2014-Oct-24 09:30N 62°13' W 006°48'0 0.1
2014-Oct-24 08:30N 62°14' W 006°48'1 0.7
2014-Oct-24 07:31N 62°14' W 006°48'0 0.0
2014-Oct-24 06:22N 62°14' W 006°48'0 0.0
2014-Oct-24 05:31N 62°14' W 006°48'0 0.0
2014-Oct-24 04:31N 62°14' W 006°48'0 0.0
2014-Oct-24 03:31N 62°14' W 006°48'0 0.0
2014-Oct-24 02:31N 62°14' W 006°48'0 0.0
2014-Oct-24 01:31N 62°14' W 006°48'0 0.0
2014-Oct-24 00:28N 62°14' W 006°48'0 0.0
2014-Oct-23 23:22N 62°14' W 006°48'0 0.0
2014-Oct-23 22:31N 62°14' W 006°48'0 0.0
2014-Oct-23 21:31N 62°14' W 006°48'0 0.0
2014-Oct-23 20:28N 62°14' W 006°48'0 0.0
2014-Oct-23 19:31N 62°14' W 006°48'0 0.0
2014-Oct-23 18:31N 62°14' W 006°48'5 4.9
2014-Oct-23 17:33N 62°12' W 006°39'3 2.4
2014-Oct-23 16:28N 62°10' W 006°43'0 0.0
2014-Oct-23 15:25N 62°10' W 006°43'3 2.7
2014-Oct-23 14:28N 62°12' W 006°39'5 5.0
2014-Oct-23 13:29N 62°14' W 006°48'0 0.1
2014-Oct-23 12:33N 62°14' W 006°48'2 0.3
2014-Oct-23 07:22N 62°15' W 006°46'2 1.9
2014-Oct-23 06:32N 62°14' W 006°48'0 0.0
2014-Oct-23 05:32N 62°14' W 006°48'0 0.0
2014-Oct-23 04:32N 62°14' W 006°48'0 0.0
2014-Oct-23 03:29N 62°14' W 006°48'0 0.0
2014-Oct-23 02:26N 62°14' W 006°48'0 0.0
2014-Oct-23 01:29N 62°14' W 006°48'0 0.0
2014-Oct-23 00:29N 62°14' W 006°48'0 0.0
2014-Oct-22 23:29N 62°14' W 006°48'0 0.0
2014-Oct-22 22:32N 62°14' W 006°48'0 0.0
2014-Oct-22 21:32N 62°14' W 006°48'0 0.0
2014-Oct-22 20:32N 62°14' W 006°48'0 0.0
2014-Oct-22 19:23N 62°14' W 006°48'0 0.0
2014-Oct-22 18:32N 62°14' W 006°48'0 0.0
2014-Oct-22 17:29N 62°14' W 006°48'1 1.3
2014-Oct-22 16:33N 62°14' W 006°46'7 7.0
2014-Oct-22 15:33N 62°08' W 006°38'2 1.6
2014-Oct-22 14:34N 62°08' W 006°42'7 6.8
2014-Oct-22 13:33N 62°01' W 006°42'3 2.7
2014-Oct-22 12:33N 61°59' W 006°45'4 4.4
2014-Oct-22 11:33N 62°03' W 006°41'8 7.6
2014-Oct-22 10:33N 62°10' W 006°36'7 5.7
2014-Oct-22 09:19N 62°14' W 006°48'0 0.0
2014-Oct-22 08:31N 62°14' W 006°48'0 0.0
2014-Oct-22 07:28N 62°14' W 006°48'0 0.0
2014-Oct-22 06:28N 62°14' W 006°48'0 0.0
2014-Oct-22 05:22N 62°14' W 006°48'0 0.0
2014-Oct-22 04:28N 62°14' W 006°48'0 0.0
2014-Oct-22 03:28N 62°14' W 006°48'0 0.0
2014-Oct-22 02:28N 62°14' W 006°48'0 0.0
2014-Oct-22 01:31N 62°14' W 006°48'0 0.0
2014-Oct-22 00:28N 62°14' W 006°48'0 0.0
2014-Oct-21 23:19N 62°14' W 006°48'0 0.0
2014-Oct-21 22:22N 62°14' W 006°48'0 0.0
2014-Oct-21 21:31N 62°14' W 006°48'0 0.0
2014-Oct-21 20:31N 62°14' W 006°48'0 0.0
2014-Oct-21 19:28N 62°14' W 006°48'0 0.0
2014-Oct-21 18:13N 62°14' W 006°48'0 0.0
2014-Oct-21 17:28N 62°14' W 006°48'0 0.0
2014-Oct-21 16:31N 62°14' W 006°48'0 0.0
2014-Oct-21 15:31N 62°14' W 006°48'0 0.0
2014-Oct-21 14:31N 62°14' W 006°48'0 0.0
2014-Oct-21 13:25N 62°14' W 006°48'  

Dump ship's entire track history